Strona główna
METAR-TAF:

METAR-TAF

Lotnisko :

Natashquan, Quebec, Kanada

Szerokość geograficzna: 50-11N, Długość geograficzna: 061-49W, wysokość: 7 m

Aktualna obserwacja pogody

Raport powstał 25 minut temu, godzina 08:00 UTC
Wiatr 14 kt od północ
Temperatura -5°C
Wilgotność 68%
Ciśnienie 1000 hPa
Widzialność: 14.5 km
bezchmurnie

METAR: CYNA 070800Z AUTO 35014KT 9SM CLR M05/M10 A2954 RMK SLP006

czas: 04:25 (08:25 UTC)

Prognoza

Raport powstał 47 minut temu, godzina 07:38 UTC
Prognoza ważna od 07 godzina 08 UTC do 07 godzina 20 UTC
Wiatr 12 kt od północno-północny zachód w porywach dochodzący do 22 kt
Widzialność: 10 km
Rozproszone chmury na wysokości 3000 ft
Stopniowe zmiany
od 07 godzina 12 UTC do 07 godzina 14 UTC
Wiatr 12 kt od północny zachód
Od 07 godzina 1600 UTC
Wiatr 12 kt od północny zachód
Widzialność: 10 km
Przerywane chmury na wysokości 4000 ft

TAF: CYNA 070738Z 0708/0720 34012G22KT P6SM SCT030 BECMG 0712/0714 31012KT FM071600 31012KT P6SM BKN040 RMK FCST BASED ON AUTO OBS. NXT FCST BY 071400Z

Obserwacja i prognoza pogody dla ponad 4000 lotnisk (raport METAR i TAF).

Dostępne stacje oznaczono żółtymi i czerwonymi punktami na mapie.

Najedź kursorem aby zobaczyć nazwę stacji.

Kliknij aby zobaczyć obserwacje i prognozy pogody.

Aby zmienić mapę: kliknij na zielony przycisk z czarnym krzyżykiem, aby powiększyć; na zielony przycisk z myślnikiem, aby pomniejszyć; na zielone strzałki, aby przejść do map sąsiednich.


METAR-TAF: